createdAt,value
2018-05-10T00:00:09.554Z,4.07
2018-05-10T00:02:35.947Z,4.00
2018-05-10T00:05:02.405Z,3.90
2018-05-10T00:07:28.801Z,4.10
2018-05-10T00:09:55.925Z,4.03
2018-05-10T00:12:23.101Z,3.80
2018-05-10T00:14:49.536Z,4.13
2018-05-10T00:17:15.956Z,4.17
2018-05-10T00:19:42.400Z,4.63
2018-05-10T00:22:08.811Z,4.40
2018-05-10T00:24:35.254Z,6.07
2018-05-10T00:27:02.438Z,5.17
2018-05-10T00:29:28.835Z,5.17
2018-05-10T00:31:55.254Z,5.17
2018-05-10T00:34:22.805Z,5.03
2018-05-10T00:36:49.208Z,5.80
2018-05-10T00:39:17.121Z,4.70
2018-05-10T00:41:43.595Z,4.67
2018-05-10T00:44:09.969Z,4.77
2018-05-10T00:46:37.148Z,5.33
2018-05-10T00:49:03.557Z,3.93
2018-05-10T00:51:30.715Z,4.80
2018-05-10T00:53:57.849Z,4.53
2018-05-10T00:56:24.313Z,4.87
2018-05-10T00:58:51.537Z,4.00
2018-05-10T01:01:17.966Z,4.57
2018-05-10T01:03:44.407Z,4.53
2018-05-10T01:06:10.820Z,4.70
2018-05-10T01:08:37.232Z,4.37
2018-05-10T01:11:03.674Z,4.47
2018-05-10T01:13:30.094Z,4.73
2018-05-10T01:15:56.518Z,4.50
2018-05-10T01:18:23.104Z,3.97
2018-05-10T01:20:49.517Z,4.50
2018-05-10T01:23:15.965Z,4.77
2018-05-10T01:25:42.379Z,4.50
2018-05-10T01:28:09.541Z,4.93
2018-05-10T01:30:35.998Z,5.60
2018-05-10T01:33:03.340Z,4.93
2018-05-10T01:35:41.949Z,4.97
2018-05-10T01:38:08.392Z,6.93
2018-05-10T01:40:34.777Z,6.00
2018-05-10T01:43:01.220Z,11.87
2018-05-10T01:45:27.642Z,7.70
2018-05-10T01:47:54.127Z,8.47
2018-05-10T01:50:22.019Z,7.93
2018-05-10T01:52:49.177Z,9.37
2018-05-10T01:55:15.763Z,10.90
2018-05-10T01:57:42.173Z,9.87
2018-05-10T02:00:08.663Z,10.83
2018-05-10T02:02:35.080Z,11.40
2018-05-10T02:05:01.474Z,11.50
2018-05-10T02:07:27.972Z,11.13
2018-05-10T02:09:54.342Z,11.57
2018-05-10T02:12:20.812Z,10.57
2018-05-10T02:14:47.240Z,10.10
2018-05-10T02:17:14.395Z,10.03
2018-05-10T02:19:40.809Z,10.50
2018-05-10T02:22:07.391Z,9.97
2018-05-10T02:24:34.534Z,9.57
2018-05-10T02:27:01.775Z,9.30
2018-05-10T02:29:28.303Z,9.50
2018-05-10T02:31:54.841Z,10.30
2018-05-10T02:34:22.030Z,9.90
2018-05-10T02:36:48.488Z,10.10
2018-05-10T02:39:14.900Z,10.50
2018-05-10T02:41:41.390Z,9.83
2018-05-10T02:44:07.819Z,11.40
2018-05-10T02:46:34.970Z,10.97
2018-05-10T02:49:01.411Z,11.13
2018-05-10T02:51:28.612Z,11.40
2018-05-10T02:53:55.059Z,11.13
2018-05-10T02:56:21.526Z,10.43
2018-05-10T02:58:47.947Z,9.47
2018-05-10T03:01:14.421Z,9.13
2018-05-10T03:03:41.583Z,9.83
2018-05-10T03:06:08.027Z,9.57
2018-05-10T03:08:34.434Z,9.93
2018-05-10T03:11:01.584Z,10.60
2018-05-10T03:13:28.750Z,14.87
2018-05-10T03:15:55.146Z,14.67
2018-05-10T03:18:21.545Z,14.40
2018-05-10T03:20:47.953Z,14.73
2018-05-10T03:23:14.348Z,14.40
2018-05-10T03:25:41.538Z,12.27
2018-05-10T03:28:09.252Z,13.80
2018-05-10T03:30:35.673Z,15.63
2018-05-10T03:33:02.939Z,14.60
2018-05-10T03:35:29.359Z,15.83
2018-05-10T03:37:55.753Z,17.23
2018-05-10T03:40:22.206Z,14.43
2018-05-10T03:42:48.657Z,15.73
2018-05-10T03:45:15.208Z,14.20
2018-05-10T03:47:41.596Z,14.00
2018-05-10T03:50:08.046Z,13.67
2018-05-10T03:52:34.431Z,14.53
2018-05-10T03:55:01.581Z,14.40
2018-05-10T03:57:28.777Z,11.77
2018-05-10T03:59:55.170Z,11.23
2018-05-10T04:02:34.581Z,10.83
2018-05-10T04:05:13.429Z,11.87
2018-05-10T04:07:52.765Z,11.30
2018-05-10T04:10:31.360Z,12.50
2018-05-10T04:12:57.788Z,11.00
2018-05-10T04:15:24.220Z,12.50
2018-05-10T04:17:50.592Z,12.97
2018-05-10T04:20:17.010Z,12.83
2018-05-10T04:22:44.149Z,13.20
2018-05-10T04:25:11.314Z,13.87
2018-05-10T04:27:37.754Z,13.00
2018-05-10T04:30:04.192Z,12.90
2018-05-10T04:32:30.601Z,13.80
2018-05-10T04:34:57.791Z,12.77
2018-05-10T04:37:24.231Z,11.50
2018-05-10T04:39:50.643Z,11.90
2018-05-10T04:42:17.922Z,11.27
2018-05-10T04:44:44.317Z,11.47
2018-05-10T04:47:11.458Z,10.60
2018-05-10T04:49:38.630Z,9.50
2018-05-10T04:52:05.122Z,9.77
2018-05-10T04:54:31.490Z,10.47
2018-05-10T04:56:57.915Z,11.37
2018-05-10T04:59:24.399Z,9.53
2018-05-10T05:01:51.498Z,9.67
2018-05-10T05:04:17.921Z,10.50
2018-05-10T05:06:45.041Z,9.93
2018-05-10T05:09:12.233Z,10.27
2018-05-10T05:11:39.428Z,10.70
2018-05-10T05:14:05.888Z,11.00
2018-05-10T05:16:32.271Z,14.00
2018-05-10T05:18:58.706Z,15.60
2018-05-10T05:21:25.301Z,16.23
2018-05-10T05:23:51.677Z,17.10
2018-05-10T05:26:18.132Z,20.37
2018-05-10T05:28:44.523Z,19.50
2018-05-10T05:31:11.618Z,21.73
2018-05-10T05:33:38.053Z,23.97
2018-05-10T05:36:04.523Z,28.10
2018-05-10T05:38:31.683Z,28.23
2018-05-10T05:40:58.170Z,26.73
2018-05-10T05:43:24.586Z,27.90
2018-05-10T05:45:50.993Z,29.77
2018-05-10T05:48:17.402Z,31.43
2018-05-10T05:50:43.821Z,28.23
2018-05-10T05:53:10.226Z,30.63
2018-05-10T05:55:36.673Z,32.70
2018-05-10T05:58:03.829Z,31.67
2018-05-10T06:00:30.227Z,33.27
2018-05-10T06:02:56.617Z,37.87
2018-05-10T06:05:23.027Z,37.23
2018-05-10T06:07:50.888Z,37.73
2018-05-10T06:10:17.432Z,36.40
2018-05-10T06:12:43.793Z,37.57
2018-05-10T06:15:10.926Z,36.20
2018-05-10T06:17:38.098Z,39.57
2018-05-10T06:20:04.588Z,38.10
2018-05-10T06:22:31.034Z,41.27
2018-05-10T06:24:58.316Z,39.90
2018-05-10T06:27:24.668Z,39.60
2018-05-10T06:29:51.081Z,41.10
2018-05-10T06:32:17.624Z,41.73
2018-05-10T06:34:44.074Z,39.87
2018-05-10T06:37:10.474Z,43.47
2018-05-10T06:39:37.805Z,42.40
2018-05-10T06:42:04.262Z,41.80
2018-05-10T06:44:31.413Z,43.50
2018-05-10T06:46:58.617Z,46.07
2018-05-10T06:49:25.023Z,44.60
2018-05-10T06:51:51.448Z,46.73
2018-05-10T06:54:18.608Z,47.37
2018-05-10T06:56:45.010Z,48.27
2018-05-10T06:59:12.153Z,49.80
2018-05-10T07:01:38.593Z,47.93
2018-05-10T07:04:05.776Z,47.30
2018-05-10T07:06:32.187Z,46.60
2018-05-10T07:08:58.598Z,46.80
2018-05-10T07:11:25.015Z,47.07
2018-05-10T07:13:51.515Z,50.90
2018-05-10T07:16:17.954Z,47.80
2018-05-10T07:18:44.349Z,50.90
2018-05-10T07:21:11.518Z,53.00
2018-05-10T07:23:37.963Z,52.27
2018-05-10T07:26:04.447Z,43.27
2018-05-10T07:28:30.889Z,41.17
2018-05-10T07:30:57.287Z,41.53
2018-05-10T07:33:23.712Z,39.87
2018-05-10T07:35:50.110Z,40.60
2018-05-10T07:38:16.610Z,41.23
2018-05-10T07:40:43.774Z,39.47
2018-05-10T07:43:11.010Z,40.50
2018-05-10T07:45:37.477Z,40.40
2018-05-10T07:48:03.978Z,39.47
2018-05-10T07:50:30.466Z,37.53
2018-05-10T07:52:56.916Z,38.13
2018-05-10T07:55:23.313Z,37.50
2018-05-10T07:57:49.703Z,38.07
2018-05-10T08:00:16.150Z,36.53
2018-05-10T08:02:43.338Z,36.40
2018-05-10T08:05:09.933Z,36.20
2018-05-10T08:07:36.372Z,35.40
2018-05-10T08:10:03.669Z,35.10
2018-05-10T08:12:30.481Z,35.07
2018-05-10T08:14:56.987Z,33.90
2018-05-10T08:17:23.502Z,33.50
2018-05-10T08:19:49.901Z,35.57
2018-05-10T08:22:16.464Z,32.03
2018-05-10T08:24:42.937Z,35.97
2018-05-10T08:27:09.526Z,31.37
2018-05-10T08:29:36.221Z,32.70
2018-05-10T08:32:03.421Z,34.57
2018-05-10T08:34:29.970Z,32.07
2018-05-10T08:36:56.535Z,33.27
2018-05-10T08:39:23.213Z,33.37
2018-05-10T08:41:49.749Z,34.60
2018-05-10T08:44:16.254Z,34.00
2018-05-10T08:46:43.422Z,32.50
2018-05-10T08:49:09.887Z,33.10
2018-05-10T08:51:36.530Z,33.37
2018-05-10T08:54:02.971Z,33.23
2018-05-10T08:56:30.305Z,35.13
2018-05-10T08:58:57.813Z,32.30
2018-05-10T09:01:25.029Z,33.80
2018-05-10T09:03:51.508Z,33.23
2018-05-10T09:06:18.063Z,30.70
2018-05-10T09:08:44.638Z,35.67
2018-05-10T09:11:11.215Z,33.63
2018-05-10T09:13:38.410Z,32.80
2018-05-10T09:16:05.552Z,32.00
2018-05-10T09:18:32.114Z,32.73
2018-05-10T09:20:59.400Z,32.90
2018-05-10T09:23:26.611Z,32.87
2018-05-10T09:25:53.039Z,32.60
2018-05-10T09:28:19.549Z,32.83
2018-05-10T09:30:46.701Z,31.40
2018-05-10T09:33:13.852Z,30.10
2018-05-10T09:35:41.049Z,28.03
2018-05-10T09:38:07.632Z,28.13
2018-05-10T09:40:34.129Z,25.90
2018-05-10T09:43:00.872Z,23.90
2018-05-10T09:45:27.482Z,25.30
2018-05-10T09:47:53.954Z,22.00
2018-05-10T09:50:21.199Z,20.60
2018-05-10T09:52:48.957Z,27.60
2018-05-10T09:55:15.509Z,28.40
2018-05-10T09:57:42.043Z,28.93
2018-05-10T10:00:08.622Z,28.50
2018-05-10T10:02:35.032Z,26.70
2018-05-10T10:05:01.525Z,29.60
2018-05-10T10:07:27.970Z,28.17
2018-05-10T10:09:54.468Z,28.07
2018-05-10T10:12:20.964Z,26.97
2018-05-10T10:14:47.565Z,27.77
2018-05-10T10:17:14.088Z,26.60
2018-05-10T10:19:40.552Z,25.97
2018-05-10T10:22:08.117Z,25.00
2018-05-10T10:24:35.321Z,22.33
2018-05-10T10:27:01.904Z,23.20
2018-05-10T10:29:28.447Z,22.53
2018-05-10T10:31:55.664Z,23.57
2018-05-10T10:34:22.185Z,22.20
2018-05-10T10:36:48.638Z,22.50
2018-05-10T10:39:15.156Z,22.33
2018-05-10T10:41:41.684Z,22.23
2018-05-10T10:44:08.216Z,22.10
2018-05-10T10:46:35.483Z,21.57
2018-05-10T10:49:01.959Z,20.17
2018-05-10T10:51:28.424Z,21.53
2018-05-10T10:53:55.102Z,19.90
2018-05-10T10:56:21.558Z,19.70
2018-05-10T10:58:47.998Z,20.30
2018-05-10T11:01:15.226Z,20.20
2018-05-10T11:03:42.500Z,19.80
2018-05-10T11:06:09.702Z,18.90
2018-05-10T11:08:36.182Z,18.90
2018-05-10T11:11:03.374Z,19.20
2018-05-10T11:13:29.780Z,19.60
2018-05-10T11:15:56.961Z,19.40
2018-05-10T11:18:23.419Z,17.20
2018-05-10T11:20:49.879Z,16.07
2018-05-10T11:23:16.293Z,13.23
2018-05-10T11:25:43.569Z,18.37
2018-05-10T11:28:10.013Z,15.53
2018-05-10T11:30:36.448Z,19.27
2018-05-10T11:33:02.890Z,18.27
2018-05-10T11:35:29.406Z,16.80
2018-05-10T11:37:56.584Z,18.73
2018-05-10T11:40:23.076Z,17.90
2018-05-10T11:42:50.982Z,15.70
2018-05-10T11:45:17.492Z,15.83
2018-05-10T11:47:43.979Z,15.03
2018-05-10T11:50:10.418Z,17.73
2018-05-10T11:52:36.899Z,16.70
2018-05-10T11:55:03.743Z,15.50
2018-05-10T11:57:30.921Z,15.90
2018-05-10T11:59:57.393Z,17.00
2018-05-10T12:02:23.795Z,15.63
2018-05-10T12:04:50.257Z,18.27
2018-05-10T12:07:16.653Z,18.57
2018-05-10T12:09:43.815Z,17.90
2018-05-10T12:12:10.215Z,16.83
2018-05-10T12:14:37.391Z,18.73
2018-05-10T12:17:03.853Z,17.70
2018-05-10T12:19:30.290Z,17.37
2018-05-10T12:21:56.737Z,17.77
2018-05-10T12:24:23.216Z,15.50
2018-05-10T12:26:49.650Z,15.03
2018-05-10T12:29:16.096Z,15.90
2018-05-10T12:31:44.086Z,15.13
2018-05-10T12:34:10.540Z,14.37
2018-05-10T12:36:37.013Z,13.17
2018-05-10T12:39:04.233Z,14.90
2018-05-10T12:41:30.797Z,14.17
2018-05-10T12:43:57.163Z,14.43
2018-05-10T12:46:23.626Z,15.10
2018-05-10T12:48:50.092Z,15.53
2018-05-10T12:51:17.310Z,17.63
2018-05-10T12:53:43.866Z,18.10
2018-05-10T12:56:10.447Z,19.40
2018-05-10T12:58:36.787Z,21.00
2018-05-10T13:01:03.230Z,22.50
2018-05-10T13:03:29.708Z,23.73
2018-05-10T13:05:56.093Z,24.27
2018-05-10T13:08:22.673Z,25.57
2018-05-10T13:10:49.103Z,26.30
2018-05-10T13:13:16.421Z,26.60
2018-05-10T13:15:42.916Z,27.23
2018-05-10T13:18:10.019Z,26.90
2018-05-10T13:20:36.679Z,23.87
2018-05-10T13:23:03.276Z,24.27
2018-05-10T13:25:29.824Z,23.70
2018-05-10T13:27:56.266Z,24.90
2018-05-10T13:30:22.802Z,24.13
2018-05-10T13:32:49.378Z,24.17
2018-05-10T13:35:16.161Z,24.03
2018-05-10T13:37:42.690Z,22.00
2018-05-10T13:40:09.949Z,23.10
2018-05-10T13:42:36.421Z,21.77
2018-05-10T13:45:03.026Z,22.57
2018-05-10T13:47:30.524Z,22.23
2018-05-10T13:49:57.026Z,22.87
2018-05-10T13:52:24.268Z,21.40
2018-05-10T13:54:50.724Z,20.73
2018-05-10T13:57:17.151Z,17.20
2018-05-10T13:59:43.659Z,18.00
2018-05-10T14:02:10.108Z,17.33
2018-05-10T14:04:36.748Z,16.13
2018-05-10T14:07:03.316Z,14.83
2018-05-10T14:09:30.550Z,13.03
2018-05-10T14:11:58.544Z,14.00
2018-05-10T14:14:25.054Z,14.50
2018-05-10T14:16:52.276Z,12.57
2018-05-10T14:19:18.734Z,11.57
2018-05-10T14:21:45.261Z,12.40
2018-05-10T14:24:11.829Z,10.90
2018-05-10T14:26:38.404Z,9.80
2018-05-10T14:29:04.834Z,8.30
2018-05-10T14:31:31.307Z,6.90
2018-05-10T14:33:57.766Z,7.10
2018-05-10T14:36:24.295Z,7.00
2018-05-10T14:38:50.801Z,5.77
2018-05-10T14:41:17.336Z,6.43
2018-05-10T14:43:44.078Z,6.20
2018-05-10T14:46:10.629Z,5.73
2018-05-10T14:48:37.118Z,6.87
2018-05-10T14:51:03.597Z,5.13
2018-05-10T14:53:30.917Z,4.70
2018-05-10T14:55:57.403Z,6.80
2018-05-10T14:58:24.614Z,5.87
2018-05-10T15:00:51.109Z,5.53
2018-05-10T15:03:19.021Z,5.37
2018-05-10T15:05:45.520Z,6.30
2018-05-10T15:08:12.034Z,6.17
2018-05-10T15:10:38.477Z,6.80
2018-05-10T15:13:04.926Z,5.87
2018-05-10T15:15:32.367Z,6.50
2018-05-10T15:17:59.506Z,6.27
2018-05-10T15:20:25.925Z,5.53
2018-05-10T15:22:52.372Z,5.50
2018-05-10T15:25:19.632Z,6.17
2018-05-10T15:27:46.901Z,5.90
2018-05-10T15:30:13.312Z,6.00
2018-05-10T15:32:40.493Z,5.93
2018-05-10T15:35:07.943Z,5.70
2018-05-10T15:37:34.376Z,6.03
2018-05-10T15:40:00.884Z,6.10
2018-05-10T15:42:27.351Z,7.13
2018-05-10T15:44:53.822Z,7.90
2018-05-10T15:47:20.284Z,6.77
2018-05-10T15:49:47.452Z,7.60
2018-05-10T15:52:13.886Z,7.00
2018-05-10T15:54:40.364Z,6.83
2018-05-10T15:57:06.819Z,7.27
2018-05-10T15:59:33.267Z,6.73
2018-05-10T16:01:59.683Z,7.40
2018-05-10T16:04:26.199Z,9.20
2018-05-10T16:06:52.637Z,8.87
2018-05-10T16:09:19.252Z,8.10
2018-05-10T16:11:46.539Z,7.67
2018-05-10T16:14:12.961Z,9.10
2018-05-10T16:16:39.428Z,9.00
2018-05-10T16:19:06.703Z,9.10
2018-05-10T16:21:33.148Z,9.73
2018-05-10T16:23:59.582Z,10.47
2018-05-10T16:26:26.127Z,9.50
2018-05-10T16:28:52.582Z,10.13
2018-05-10T16:31:19.001Z,10.23
2018-05-10T16:33:45.688Z,10.20
2018-05-10T16:36:12.138Z,10.03
2018-05-10T16:38:39.273Z,12.47
2018-05-10T16:41:05.758Z,12.90
2018-05-10T16:43:32.224Z,12.80
2018-05-10T16:45:58.654Z,14.40
2018-05-10T16:48:25.134Z,12.47
2018-05-10T16:50:52.278Z,13.20
2018-05-10T16:53:19.691Z,12.97
2018-05-10T16:55:46.890Z,13.27
2018-05-10T16:58:13.442Z,13.57
2018-05-10T17:00:39.854Z,14.27
2018-05-10T17:03:06.301Z,13.57
2018-05-10T17:05:33.543Z,14.03
2018-05-10T17:07:59.962Z,14.90
2018-05-10T17:10:27.186Z,13.87
2018-05-10T17:12:53.691Z,15.73
2018-05-10T17:15:20.153Z,14.63
2018-05-10T17:17:46.678Z,15.57
2018-05-10T17:20:13.218Z,15.17
2018-05-10T17:22:39.672Z,13.50
2018-05-10T17:25:06.199Z,14.57
2018-05-10T17:27:32.751Z,15.77
2018-05-10T17:29:59.285Z,14.80
2018-05-10T17:32:26.463Z,16.13
2018-05-10T17:34:52.957Z,14.90
2018-05-10T17:37:19.409Z,14.40
2018-05-10T17:39:45.856Z,15.83
2018-05-10T17:42:13.089Z,14.40
2018-05-10T17:44:39.545Z,13.67
2018-05-10T17:47:06.140Z,14.57
2018-05-10T17:49:32.656Z,15.40
2018-05-10T17:51:59.182Z,17.90
2018-05-10T17:54:25.714Z,14.30
2018-05-10T17:56:52.125Z,15.43
2018-05-10T17:59:18.655Z,15.73
2018-05-10T18:01:45.289Z,14.70
2018-05-10T18:04:13.559Z,15.40
2018-05-10T18:06:41.442Z,14.20
2018-05-10T18:09:07.941Z,15.40
2018-05-10T18:11:34.399Z,15.60
2018-05-10T18:14:01.584Z,15.03
2018-05-10T18:16:28.143Z,16.30
2018-05-10T18:18:54.707Z,14.67
2018-05-10T18:21:21.867Z,14.83
2018-05-10T18:23:49.049Z,14.67
2018-05-10T18:26:15.507Z,14.37
2018-05-10T18:28:42.011Z,14.87
2018-05-10T18:31:08.521Z,15.50
2018-05-10T18:33:34.948Z,14.50
2018-05-10T18:36:01.538Z,16.00
2018-05-10T18:38:28.082Z,16.03
2018-05-10T18:40:54.651Z,14.43
2018-05-10T18:43:21.854Z,15.00
2018-05-10T18:45:48.365Z,14.03
2018-05-10T18:48:14.902Z,16.10
2018-05-10T18:50:42.072Z,16.43
2018-05-10T18:53:08.630Z,15.40
2018-05-10T18:55:35.139Z,13.80
2018-05-10T18:58:01.711Z,15.30
2018-05-10T19:00:28.197Z,16.17
2018-05-10T19:02:55.649Z,15.00
2018-05-10T19:05:22.260Z,14.33
2018-05-10T19:07:48.806Z,13.73
2018-05-10T19:10:15.313Z,15.87
2018-05-10T19:12:41.791Z,14.50
2018-05-10T19:15:09.020Z,15.07
2018-05-10T19:17:35.612Z,13.87
2018-05-10T19:20:02.187Z,13.67
2018-05-10T19:22:29.457Z,15.20
2018-05-10T19:24:56.605Z,13.90
2018-05-10T19:27:23.097Z,16.53
2018-05-10T19:29:49.750Z,15.97
2018-05-10T19:32:16.389Z,14.37
2018-05-10T19:34:42.912Z,13.00
2018-05-10T19:37:09.346Z,12.60
2018-05-10T19:39:35.830Z,12.57
2018-05-10T19:42:02.338Z,12.07
2018-05-10T19:44:28.818Z,11.77
2018-05-10T19:46:55.320Z,11.63
2018-05-10T19:49:21.810Z,10.77
2018-05-10T19:51:48.418Z,10.63
2018-05-10T19:54:15.270Z,11.07
2018-05-10T19:56:41.957Z,11.40
2018-05-10T19:59:08.484Z,10.93
2018-05-10T20:01:34.979Z,10.20
2018-05-10T20:04:01.484Z,11.17
2018-05-10T20:06:28.119Z,11.43
2018-05-10T20:08:56.276Z,11.60
2018-05-10T20:11:23.527Z,11.57
2018-05-10T20:13:50.113Z,9.40
2018-05-10T20:16:16.613Z,9.50
2018-05-10T20:18:44.059Z,10.00
2018-05-10T20:21:10.533Z,11.80
2018-05-10T20:23:37.025Z,10.10
2018-05-10T20:26:04.278Z,9.93
2018-05-10T20:28:30.833Z,9.60
2018-05-10T20:30:57.296Z,8.83
2018-05-10T20:33:23.973Z,9.67
2018-05-10T20:35:50.384Z,9.90
2018-05-10T20:38:16.927Z,8.70
2018-05-10T20:40:43.503Z,8.90
2018-05-10T20:43:10.766Z,10.10
2018-05-10T20:45:37.177Z,10.00
2018-05-10T20:48:04.383Z,10.47
2018-05-10T20:50:31.657Z,9.87
2018-05-10T20:52:58.819Z,10.20
2018-05-10T20:55:26.198Z,10.70
2018-05-10T20:57:53.442Z,11.20
2018-05-10T21:00:19.972Z,9.27
2018-05-10T21:02:46.420Z,11.80
2018-05-10T21:05:12.863Z,11.00
2018-05-10T21:07:40.294Z,10.07
2018-05-10T21:10:07.580Z,9.00
2018-05-10T21:12:41.116Z,9.90
2018-05-10T21:15:08.692Z,9.50
2018-05-10T21:17:35.142Z,9.40
2018-05-10T21:20:02.828Z,10.10
2018-05-10T21:22:30.267Z,9.83
2018-05-10T21:24:56.718Z,10.17
2018-05-10T21:27:23.328Z,9.13
2018-05-10T21:29:50.032Z,10.90
2018-05-10T21:32:16.495Z,8.90
2018-05-10T21:34:43.876Z,9.43
2018-05-10T21:37:10.565Z,8.40
2018-05-10T21:39:36.969Z,8.63
2018-05-10T21:42:03.576Z,9.50
2018-05-10T21:44:30.011Z,9.17
2018-05-10T21:46:56.443Z,8.33
2018-05-10T21:49:36.029Z,8.70
2018-05-10T21:52:02.636Z,9.30
2018-05-10T21:54:29.876Z,8.80
2018-05-10T21:56:57.119Z,9.40
2018-05-10T21:59:23.715Z,9.80
2018-05-10T22:01:50.214Z,9.20
2018-05-10T22:04:16.939Z,8.80
2018-05-10T22:06:43.513Z,9.00
2018-05-10T22:09:10.068Z,10.20
2018-05-10T22:11:37.253Z,9.10
2018-05-10T22:14:03.777Z,9.50
2018-05-10T22:16:30.182Z,8.27
2018-05-10T22:18:56.629Z,8.83
2018-05-10T22:21:23.090Z,9.80
2018-05-10T22:23:49.524Z,8.93
2018-05-10T22:26:16.714Z,10.00
2018-05-10T22:28:43.126Z,9.37
2018-05-10T22:31:09.568Z,10.20
2018-05-10T22:33:36.777Z,9.70
2018-05-10T22:36:03.188Z,9.50
2018-05-10T22:38:29.602Z,9.40
2018-05-10T22:40:56.909Z,9.17
2018-05-10T22:43:23.334Z,10.03
2018-05-10T22:45:49.878Z,10.57
2018-05-10T22:48:16.681Z,9.90
2018-05-10T22:50:43.111Z,9.77
2018-05-10T22:53:09.533Z,10.83
2018-05-10T22:55:35.963Z,9.53
2018-05-10T22:58:02.398Z,10.17
2018-05-10T23:00:28.800Z,11.87
2018-05-10T23:02:55.214Z,11.73
2018-05-10T23:05:22.358Z,11.10
2018-05-10T23:07:48.793Z,10.47
2018-05-10T23:10:15.230Z,10.97
2018-05-10T23:12:41.781Z,10.90
2018-05-10T23:15:08.327Z,11.27
2018-05-10T23:17:35.568Z,12.17
2018-05-10T23:20:02.021Z,11.60
2018-05-10T23:22:29.141Z,11.57
2018-05-10T23:24:55.584Z,11.80
2018-05-10T23:27:22.014Z,11.60
2018-05-10T23:29:48.456Z,11.70
2018-05-10T23:32:15.798Z,12.37
2018-05-10T23:34:42.986Z,12.60
2018-05-10T23:37:09.461Z,13.00
2018-05-10T23:39:35.884Z,12.73
2018-05-10T23:42:02.371Z,12.40
2018-05-10T23:44:29.563Z,11.67
2018-05-10T23:46:55.989Z,12.70
2018-05-10T23:49:22.430Z,12.03
2018-05-10T23:51:48.856Z,12.70
2018-05-10T23:54:15.280Z,12.83
2018-05-10T23:56:41.774Z,12.47
2018-05-10T23:59:08.194Z,12.70
